Nashville, NC

11:24 AM EDT on September 02, 2014 (GMT -0400)
Nashville - Birchwood | Change Station
CLOSE
Current Station
Personal Weather Station
Location: Nashville, NC
Elevation: 223 ft
Nearby Weather Stations

Elev 223 ft 35.96 °N, 77.94 °W | Updated 19 seconds ago

Clear
Clear
89.1 °F
Feels Like 101 °F
N
0.0
Wind Variable Wind from WSW
Gusts 2.0 mph

Today
High -- | Low -- °F
--% Chance of Precip.
Yesterday
High -- | Low -- °F
Precip. -- in
6:44 AM 7:37 PM
First Quarter, 52% visible
Pressure 30.06 in
Visibility 10.0 miles
Clouds Clear
Heat Index 101 °F
Dew Point 77 °F
Humidity 67%
Rainfall 0.00 in
Snow Depth Not available.
UV 7 out of 12
Pollen 9.60 out of 12
PM2.5 Good
Flu Activity Not available.
METAR KRWI 021453Z AUTO 23005KT 10SM CLR 31/23 A3007 RMK AO2 SLP180 T03110228 55002

More Conditions Fewer Conditions

Pressure 30.06 in
Visibility 10.0 miles
Clouds Clear
Heat Index 101 °F
Dew Point 77 °F
Humidity 67%
Rainfall 0.00 in
Snow Depth Not available.
UV 7 out of 12
Pollen 9.60 out of 12
PM2.5 Good
Flu Activity Not available.
METAR KRWI 021453Z AUTO 23005KT 10SM CLR 31/23 A3007 RMK AO2 SLP180 T03110228 55002

More Conditions Fewer Conditions

10-Day Weather Forecast

Almanac

Astronomy

Sep. 02, 2014 Rise Set
Actual Time 6:44 AM EDT 7:37 PM EDT
Civil Twilight 6:18 AM EDT 8:04 PM EDT
Nautical Twilight 5:47 AM EDT 8:34 PM EDT
Astronomical Twilight 5:15 AM EDT 9:06 PM EDT
Moon 2:13 PM EDT No Moon Set
Length of Visible Light 13h 45m
Length of Day
12h 53m
Tomorrow will be 2m 11s shorter.
First Quarter, 52% of the Moon is Illuminated
Today
First Quarter
Sep 8
Full
Sep 15
Last Quarter
Sep 24
New
Oct 1
First Quarter

Today's Extremes

State Highs State Lows

Community

WunderPhotos

Upload Photos

1,749,690 photos uploaded!

Nearby

Air Quality

  Air Quality AQ Index Pollutant
Yesterday Good
PM2.5
Current Good
PM2.5
Tuesday Good
OZONE
Tuesday Good
PM2.5
Wednesday Good
OZONE
Wednesday Good
PM2.5
Thursday Good
OZONE
Thursday Good
PM2.5

Snow Depth

Station Depth Elevation
No new snow has been reported.

Earthquake Activity

City Distance Mag. Time & Date
No recent earthquake activity has been reported nearby.
Minimum magnitude displayed is 2.5.

Coastal Water Temperatures

Place Temperature
No Stations Reporting

Nearby Weather Stations